Maria S. Merian — DBBT — position and weather

sailwx.info

Track history (hours):
 
Tides and Currents Weather Stations Pressure Air Temp Water Temp Dewpoint Dewpoint Depression Visibility Wind Speed Wind Dir Waves Ship Positions

Oceanographic research ship Maria S. Merian (Germany)

Last reported at 2019-Feb-23 00:00 UTC. Time now 2019-Feb-23 00:45 UTC.
Position S 51°36' W 048°30'.

Length 94.8 m; beam 19.2 m; draft 6.5 m.

Type: Other ship. MMSI: 211753000.

Wind from 250 at 27 knots

Barometer 1001.6 mb
Air temperature 5.3 ° C
Dewpoint 0.6 ° C
Water temperature 5.7 ° C

Date/timePositionNaut miles runAvg speedWind from/ knotsBaromVisibWave heightAir tempDewpointWater temp
2019-Feb-23 00:00S 51°36' W 048°30'7 7.1 250 / 271001.6 5.3 0.6 5.7
2019-Feb-22 23:00S 51°42' W 048°36'6 6.0 250 / 311001.3 5.3 2.2 5.5
2019-Feb-22 22:00S 51°48' W 048°36'7 7.1 240 / 271000.9 5.1 1.9 5.5
2019-Feb-22 21:00S 51°54' W 048°42'0 0.0 250 / 291000.6 5.4 1.5 6.2
2019-Feb-22 20:00S 51°54' W 048°42'6 6.0 250 / 291000.3 5.2 1.9 5.8
2019-Feb-22 19:00S 52°00' W 048°42'7 7.0 240 / 271000.7 3.0 1.8 6.8
2019-Feb-22 18:00S 52°06' W 048°48'6 6.0 240 / 211000.9 4.0 2.0 5.6
2019-Feb-22 17:00S 52°12' W 048°48'4 3.7 230 / 271000.7 2.8 1.1 5.7
2019-Feb-22 16:00S 52°12' W 048°54'6 6.0 250 / 33999.8 4.8-0.7 6.2
2019-Feb-22 15:00S 52°18' W 048°54'6 6.0 230 / 231000.1 4.1-0.5 6.3
2019-Feb-22 14:00S 52°24' W 048°54'7 7.0 240 / 29999.6 4.4-1.1 5.7
2019-Feb-22 13:00S 52°30' W 049°00'6 6.0 240 / 25999.5 3.1 1.1 5.2
2019-Feb-22 12:00S 52°36' W 049°00'4 3.6 250 / 23999.7 4.4 0.1 4.8
2019-Feb-22 11:00S 52°36' W 049°06'6 6.0 240 / 17999.2 3.4 0.9 4.8
2019-Feb-22 10:00S 52°42' W 049°06'7 7.0 240 / 23998.8 4.2-1.3 5.0
2019-Feb-22 09:00S 52°48' W 049°12'6 6.0 240 / 25999.5 3.4-0.4 4.7
2019-Feb-22 08:00S 52°54' W 049°12'6 6.0 220 / 19998.7 3.3 0.4 4.6
2019-Feb-22 07:00S 52°48' W 049°12'0 0.0 240 / 25998.7 3.7-0.3 4.7
2019-Feb-22 06:00S 52°48' W 049°12'7 7.0 230 / 23998.9 3.4 0.2 4.9
2019-Feb-22 05:00S 52°42' W 049°18'6 6.0 230 / 25998.7 3.7-0.3 4.8
2019-Feb-22 04:00S 52°36' W 049°18'7 7.0 250 / 27998.6 2.9 1.0 5.4
2019-Feb-22 03:00S 52°30' W 049°24'0 0.0 220 / 25998.1 3.7 0.8 6.2
2019-Feb-22 02:00S 52°30' W 049°24'7 7.0 220 / 27997.5 4.1 0.6 5.8
2019-Feb-22 01:00S 52°24' W 049°30'6 6.0 230 / 27996.5 4.7 0.5 5.9
2019-Feb-22 00:00S 52°18' W 049°30'4 3.7 230 / 29995.7 5.0 1.3 6.3
2019-Feb-21 23:00S 52°18' W 049°36'6 6.0 220 / 31994.8 5.1 1.1 6.0
2019-Feb-21 22:00S 52°12' W 049°36'7 7.0 220 / 27993.8 5.3 2.2 6.0
2019-Feb-21 21:00S 52°06' W 049°42'0 0.0 220 / 27992.8 5.8 2.7 6.8
2019-Feb-21 20:00S 52°06' W 049°42'7 7.0 220 / 27992.2 5.7 2.3 6.8
2019-Feb-21 19:00S 52°00' W 049°48'6 6.0 220 / 25991.2 5.7 3.2 7.2
2019-Feb-21 18:00S 51°54' W 049°48'7 7.1 230 / 23990.0 6.1 4.3 7.2
2019-Feb-21 17:00S 51°48' W 049°54'0 0.0 250 / 25988.3 7.0 5.5 7.1
2019-Feb-21 16:00S 51°48' W 049°54'7 7.1 240 / 27986.6 6.9 5.6 6.7
2019-Feb-21 15:00S 51°42' W 050°00'6 6.0 250 / 25985.6 7.0 5.7 6.6
2019-Feb-21 14:00S 51°36' W 050°00'7 7.1 240 / 23984.3 7.1 6.0 6.9
2019-Feb-21 13:00S 51°30' W 050°06'0 0.0 230 / 19982.5 7.1 6.1 7.2
2019-Feb-21 12:00S 51°30' W 050°06'7 7.1 250 / 21980.8 7.2 5.5 7.3
2019-Feb-21 11:00S 51°24' W 050°12'6 6.0 260 / 17980.3 7.5 6.0 7.9
2019-Feb-21 10:00S 51°18' W 050°12'7 3.5 290 / 14979.7 8.0 6.3 8.1
2019-Feb-21 08:00S 51°12' W 050°18'7 7.1 300 / 25980.8 8.3 6.3 7.6
2019-Feb-21 07:00S 51°06' W 050°24'6 6.0 310 / 23981.7 8.3 6.5 7.8
2019-Feb-21 06:00S 51°00' W 050°24'4 3.8 310 / 21982.8 8.3 6.4 7.4
2019-Feb-21 05:00S 51°00' W 050°30'7 7.1 300 / 25983.9 8.1 6.1 7.5
2019-Feb-21 04:00S 50°54' W 050°36'4 3.8 310 / 27984.4 8.2 5.8 7.5
2019-Feb-21 03:00S 50°54' W 050°30'8 7.6 310 / 27984.7 8.1 5.4 7.5
2019-Feb-21 02:00S 50°54' W 050°18'4 3.8 290 / 19985.1 7.5 5.0 7.4
2019-Feb-21 01:00S 50°54' W 050°12'4 3.8 300 / 23984.4 8.6 6.6 7.2
2019-Feb-21 00:00S 50°54' W 050°06'8 7.6 310 / 23984.9 8.5 6.7 7.1
2019-Feb-20 23:00S 50°54' W 049°54'4 3.8 320 / 19985.1 8.0 6.9 7.2
2019-Feb-20 22:00S 50°54' W 049°48'4 3.8 320 / 19985.3 8.1 7.2 7.5
2019-Feb-20 21:00S 50°54' W 049°42'8 7.6 330 / 19985.5 8.5 7.4 7.5
2019-Feb-20 20:00S 50°54' W 049°30'4 3.8 320 / 17985.8 8.6 7.6 7.4
2019-Feb-20 19:00S 50°54' W 049°24'4 3.8 320 / 17986.8 8.5 7.5 6.4
2019-Feb-20 18:00S 50°54' W 049°18'8 7.6 310 / 16987.6 8.6 7.4 6.5
2019-Feb-20 17:00S 50°54' W 049°06'4 3.8 300 / 17988.0 8.8 7.8 6.8
2019-Feb-20 16:00S 50°54' W 049°00'4 3.8 310 / 21987.8 9.0 8.2 6.6
2019-Feb-20 15:00S 50°54' W 048°54'4 3.8 330 / 29988.5 9.1 8.3 6.3
2019-Feb-20 14:00S 50°54' W 048°48'8 7.6 360 / 33988.5 7.8 7.1 5.5
2019-Feb-20 13:00S 50°54' W 048°36'4 3.8 010 / 33989.6 8.5 7.1 5.6
2019-Feb-20 12:00S 50°54' W 048°30'4 3.8 020 / 27993.1 7.9 6.5 5.6
2019-Feb-20 11:00S 50°54' W 048°24'8 7.6 020 / 25994.8 7.8 5.8 5.5
2019-Feb-20 10:00S 50°54' W 048°12'4 3.8 010 / 21996.8 7.6 5.6 6.3
2019-Feb-20 09:00S 50°54' W 048°06'4 3.8 360 / 17998.2 7.4 5.4 6.4
2019-Feb-20 08:00S 50°54' W 048°00'8 7.6 360 / 16999.5 6.9 5.2 6.4
2019-Feb-20 07:00S 50°54' W 047°48'4 3.8 350 / 141001.8 6.7 5.1 6.3
2019-Feb-20 06:00S 50°54' W 047°42'4 3.8 330 / 141002.5 6.7 5.0 6.3
2019-Feb-20 05:00S 50°54' W 047°36'8 7.6 330 / 161003.2 6.5 5.4 5.9
2019-Feb-20 04:00S 50°54' W 047°24'4 3.8 330 / 141003.9 6.4 5.6 6.2
2019-Feb-20 03:00S 50°54' W 047°18'4 3.8 310 / 121003.9 6.4 5.4 6.3
2019-Feb-20 02:00S 50°54' W 047°12'4 3.8 300 / 121004.4 6.2 5.2 6.5
2019-Feb-20 01:00S 50°54' W 047°06'8 7.6 280 / 141004.1 6.3 5.2 6.5
2019-Feb-20 00:00S 50°54' W 046°54'4 3.8 270 / 161004.3 6.4 5.1 6.7
2019-Feb-19 23:00S 50°54' W 046°48'7 7.1 270 / 161003.7 6.6 5.1 6.9
2019-Feb-19 22:00S 50°48' W 046°42'7 7.1 270 / 171004.0 6.7 4.6 7.2
2019-Feb-19 21:00S 50°54' W 046°48'6 6.0 250 / 161003.1 7.4 5.0 7.0
2019-Feb-19 20:00S 51°00' W 046°48'4 3.8 260 / 171002.8 7.4 4.5 6.4
2019-Feb-19 19:00S 51°00' W 046°54'6 6.0 250 / 191002.6 7.2 3.7 6.4
2019-Feb-19 18:00S 51°06' W 046°54'6 6.0 250 / 251002.2 6.9 2.7 6.3
2019-Feb-19 17:00S 51°12' W 046°54'6 6.0 250 / 251002.0 6.3 1.6 6.4
2019-Feb-19 16:00S 51°18' W 046°54'4 3.8 250 / 291001.2 6.0 0.6 6.2
2019-Feb-19 15:00S 51°18' W 047°00'6 6.0 250 / 251000.5 5.2 2.0 5.3
2019-Feb-19 14:00S 51°24' W 047°00'6 6.0 250 / 27999.8 5.4 1.7 5.1
2019-Feb-19 13:00S 51°30' W 047°00'7 7.1 240 / 25998.6 5.5 0.5 5.2
2019-Feb-19 12:00S 51°36' W 047°06'6 6.0 230 / 29997.6 5.0-0.0 5.3
2019-Feb-19 11:00S 51°42' W 047°06'6 6.0 220 / 27996.8 4.3 1.0 5.1
2019-Feb-19 10:00S 51°48' W 047°06'4 3.7 240 / 31995.4 4.6 1.7 4.9
2019-Feb-19 09:00S 51°48' W 047°12'6 6.0 230 / 31993.9 4.7 1.6 5.4
2019-Feb-19 08:00S 51°54' W 047°12'6 6.0 240 / 35992.2 4.5 1.7 5.2
2019-Feb-19 07:00S 52°00' W 047°12'7 7.0 240 / 33991.0 5.7 2.0 5.0
2019-Feb-19 06:00S 52°06' W 047°18'6 6.0 240 / 37990.2 5.3 1.4 5.1
2019-Feb-19 05:00S 52°12' W 047°18'6 6.0 230 / 31989.3 5.4 1.4 4.8
2019-Feb-19 04:00S 52°18' W 047°18'4 3.7 230 / 31988.6 5.5 2.4 4.9
2019-Feb-19 03:00S 52°18' W 047°24'6 6.0 230 / 31987.9 5.2 2.5 4.4
2019-Feb-19 02:00S 52°24' W 047°24'6 6.0 220 / 29986.9 4.9 2.5 4.4
2019-Feb-19 01:00S 52°30' W 047°24'7 7.0 230 / 23986.5 5.2 3.9 5.0
2019-Feb-19 00:00S 52°36' W 047°30'6 6.0 230 / 23986.1 4.9 3.8 5.1
2019-Feb-18 23:00S 52°42' W 047°30'0 0.0 220 / 19985.8 4.8 3.7 4.9
2019-Feb-18 22:00S 52°42' W 047°30'7 7.0 200 / 19985.3 5.3 4.4 4.9
2019-Feb-18 21:00S 52°48' W 047°36'6 6.0 190 / 21984.4 4.7 4.0 5.0
2019-Feb-18 20:00S 52°54' W 047°36'0 0.0 190 / 19984.1 5.2 4.7 5.6
2019-Feb-18 19:00S 52°54' W 047°36'13 6.3 190 / 14984.1 5.2 5.0 5.8
2019-Feb-18 17:00S 52°42' W 047°42'6 6.0 160 / 8984.9 5.2 4.9 5.0
2019-Feb-18 16:00S 52°36' W 047°42'4 3.6 040 / 6985.4 5.6 4.8 4.8
2019-Feb-18 15:00S 52°36' W 047°48'6 6.0 030 / 12986.6 6.6 5.8 5.4
2019-Feb-18 14:00S 52°30' W 047°48'7 7.0 040 / 14987.9 6.3 5.3 4.4
2019-Feb-18 13:00S 52°24' W 047°54'0 0.0 030 / 17989.4 6.1 5.5 5.0
2019-Feb-18 12:00S 52°24' W 047°54'7 7.0 020 / 16991.8 6.1 5.4 5.2
2019-Feb-18 11:00S 52°18' W 048°00'6 6.0 020 / 16993.0 6.2 5.3 5.1
2019-Feb-18 10:00S 52°12' W 048°00'7 7.0 020 / 14994.4 6.7 5.5 6.3
2019-Feb-18 09:00S 52°06' W 048°06'0 0.0 010 / 16995.0 6.3 5.3 6.3
2019-Feb-18 08:00S 52°06' W 048°06'7 7.0 010 / 10995.9 6.5 5.5 6.1
2019-Feb-18 07:00S 52°00' W 048°12'6 6.0 350 / 14997.6 7.1 5.9 6.2
2019-Feb-18 06:00S 51°54' W 048°12'7 7.1 340 / 8998.5 6.9 5.8 6.0
2019-Feb-18 05:00S 51°48' W 048°18'0 0.0 320 / 81000.1 6.5 5.9 5.3
2019-Feb-18 04:00S 51°48' W 048°18'7 7.1 340 / 121000.0 6.7 5.8 5.5
2019-Feb-18 03:00S 51°42' W 048°24'6 6.0 320 / 12999.8 6.8 5.9 5.7
2019-Feb-18 02:00S 51°36' W 048°24'4 3.7 320 / 101000.4 6.9 6.1 6.3
2019-Feb-18 01:00S 51°36' W 048°30'6 6.0 320 / 101000.2 6.9 6.2 6.4
2019-Feb-18 00:00S 51°30' W 048°30'7 7.1 300 / 101000.8 7.0 6.1 6.6
2019-Feb-17 23:00S 51°24' W 048°36'6 6.0 290 / 81000.3 7.0 6.2 6.6
2019-Feb-17 22:00S 51°18' W 048°36'4 3.8 290 / 101000.5 7.0 6.0 6.7
2019-Feb-17 21:00S 51°18' W 048°42'7 7.1 290 / 121000.9 7.0 6.1 6.7
2019-Feb-17 20:00S 51°12' W 048°48'6 6.0 290 / 121001.0 7.0 5.9 6.7
2019-Feb-17 19:00S 51°06' W 048°48'7 7.1 280 / 141000.9 7.1 5.8 6.7
2019-Feb-17 18:00S 51°00' W 048°54'6 6.0 280 / 141001.0 7.2 5.8 6.6
2019-Feb-17 17:00S 50°54' W 048°54'7 7.1 270 / 141000.5 7.3 5.7 6.5
2019-Feb-17 16:00S 50°48' W 049°00'0 0.0 270 / 171000.7 7.4 5.6 6.6
2019-Feb-17 15:00S 50°48' W 049°00'7 7.1 260 / 191001.0 7.7 5.5 6.5
2019-Feb-17 14:00S 50°42' W 049°06'6 6.0 270 / 191000.3 7.5 5.6 6.3
2019-Feb-17 13:00S 50°36' W 049°06'4 3.8 270 / 191000.4 7.6 5.4 6.2
2019-Feb-17 12:00S 50°36' W 049°12'6 6.0 250 / 231000.7 8.0 5.0 6.4
2019-Feb-17 11:00S 50°30' W 049°12'7 7.1 260 / 271001.3 8.4 5.0 7.1
2019-Feb-17 10:00S 50°24' W 049°18'0 0.0 250 / 291000.8 8.5 5.0 7.1
2019-Feb-17 09:00S 50°24' W 049°18'6 6.0 260 / 29999.6 8.5 5.0 7.4
2019-Feb-17 08:00S 50°18' W 049°18'7 7.1 250 / 31999.7 8.6 5.0 7.2
2019-Feb-17 07:00S 50°12' W 049°24'0 0.0 250 / 33999.5 8.7 4.7 7.5
2019-Feb-17 06:00S 50°12' W 049°24'7 7.1 250 / 31998.4 8.8 4.7 7.4
2019-Feb-17 05:00S 50°06' W 049°30'6 6.0 260 / 31998.0 9.0 4.7 7.2
2019-Feb-17 04:00S 50°00' W 049°30'7 7.1 260 / 29997.9 8.9 4.8 6.5
2019-Feb-17 03:00S 49°54' W 049°36'0 0.0 260 / 29997.3 9.0 5.4 6.9
2019-Feb-17 02:00S 49°54' W 049°36'7 7.1 260 / 27996.7 9.1 6.3 7.7
2019-Feb-17 01:00S 49°48' W 049°42'7 7.1 260 / 25996.7 9.3 6.8 8.1
2019-Feb-17 00:00S 49°42' W 049°48'4 3.9 250 / 23996.5 9.9 6.7 8.2
2019-Feb-16 23:00S 49°42' W 049°42'7 7.1 250 / 25995.0 9.8 6.7 7.9
2019-Feb-16 22:00S 49°48' W 049°36'4 3.9 250 / 27994.2 10.2 7.2 8.1
2019-Feb-16 21:00S 49°48' W 049°30'4 3.9 250 / 29992.7 10.6 7.4 8.3
2019-Feb-16 20:00S 49°48' W 049°24'10 9.8 260 / 29992.0 10.4 8.1 7.8
2019-Feb-16 19:00S 49°54' W 049°12'4 3.9 270 / 31990.9 10.3 8.3 7.5
2019-Feb-16 18:00S 49°54' W 049°06'4 3.9 270 / 33991.0 10.2 8.5 7.5
2019-Feb-16 17:00S 49°54' W 049°00'4 3.9 280 / 33990.4 10.7 8.6 7.5
2019-Feb-16 16:00S 49°54' W 048°54'7 7.1 280 / 35991.0 10.8 8.6 7.3
2019-Feb-16 15:00S 50°00' W 048°48'4 3.9 280 / 33991.7 11.2 8.6 6.9
2019-Feb-16 14:00S 50°00' W 048°42'4 3.9 300 / 31992.4 10.9 8.4 7.4
2019-Feb-16 13:00S 50°00' W 048°36'4 3.9 330 / 29994.3 10.5 8.3 7.4
2019-Feb-16 12:00S 50°00' W 048°30'6 6.0 320 / 23997.0 8.7 7.9 7.5
2019-Feb-16 11:00S 50°06' W 048°30'8 7.7 320 / 25998.5 8.5 7.0 7.7
2019-Feb-16 10:00S 50°06' W 048°18'4 3.8 310 / 171000.3 8.7 7.6 7.7
2019-Feb-16 09:00S 50°06' W 048°12'4 3.8 300 / 191000.8 8.2 7.2 7.5
2019-Feb-16 08:00S 50°06' W 048°06'7 7.1 280 / 211001.9 8.1 6.9 7.7
2019-Feb-16 07:00S 50°12' W 048°00'4 3.8 270 / 231003.0 8.0 5.9 7.3
2019-Feb-16 06:00S 50°12' W 047°54'4 3.8 270 / 251002.7 7.9 5.7 7.7
2019-Feb-16 05:00S 50°12' W 047°48'7 7.1 260 / 271002.5 7.6 5.4 7.3
2019-Feb-16 04:00S 50°18' W 047°42'8 7.7 240 / 271002.0 7.2 4.9 6.5
2019-Feb-16 03:00S 50°18' W 047°30'4 3.8 240 / 251001.8 6.9 4.8 6.5
2019-Feb-16 02:00S 50°18' W 047°24'4 3.8 240 / 251001.3 6.8 4.6 6.3
2019-Feb-16 01:00S 50°18' W 047°18'7 7.1 240 / 311000.1 7.0 4.3 6.3
2019-Feb-16 00:00S 50°24' W 047°12'0 0.0 230 / 33999.3 6.4 4.0 6.2
2019-Feb-15 23:00S 50°24' W 047°12'4 3.8 240 / 33998.5 6.9 3.6 6.3
2019-Feb-15 22:00S 50°24' W 047°06'4 3.8 230 / 37997.2 7.1 3.5 6.7
2019-Feb-15 21:00S 50°24' W 047°00'7 7.1 230 / 37996.0 7.1 3.7 6.4
2019-Feb-15 20:00S 50°30' W 046°54'4 3.8 240 / 37994.4 7.4 3.8 6.8
2019-Feb-15 19:00S 50°30' W 046°48'4 3.8 230 / 33994.1 6.5 3.8 6.6
2019-Feb-15 18:00S 50°30' W 046°42'4 3.8 250 / 35993.2 7.4 4.2 6.6
2019-Feb-15 17:00S 50°30' W 046°36'10 9.7 230 / 35992.6 7.0 3.6 6.2
2019-Feb-15 16:00S 50°36' W 046°24'4 3.8 240 / 37991.7 6.6 3.4 6.3
2019-Feb-15 15:00S 50°36' W 046°18'4 3.8 240 / 31990.6 7.2 4.2 6.4
2019-Feb-15 14:00S 50°36' W 046°12'4 3.8 230 / 33989.4 7.2 4.4 6.3
2019-Feb-15 13:00S 50°36' W 046°06'6 6.0 240 / 33988.6 7.5 4.5 6.8
2019-Feb-15 12:00S 50°42' W 046°06'4 3.8 230 / 29987.9 6.6 5.2 6.5
2019-Feb-15 11:00S 50°42' W 046°12'4 3.8 220 / 39987.0 6.1 4.9 6.1
2019-Feb-15 10:00S 50°42' W 046°18'10 9.7 250 / 31985.5 7.6 7.0 6.2
2019-Feb-15 09:00S 50°48' W 046°30'4 3.8 250 / 27984.7 7.3 6.3 6.2
2019-Feb-15 08:00S 50°48' W 046°36'4 3.8 260 / 27983.7 7.2 6.1 6.4
2019-Feb-15 07:00S 50°48' W 046°42'7 7.1 260 / 31983.8 7.5 6.4 6.2
2019-Feb-15 06:00S 50°54' W 046°48'4 3.8 270 / 31983.7 8.1 7.1 6.3
2019-Feb-15 05:00S 50°54' W 046°54'6 6.0 270 / 27984.1 8.0 7.2 6.4
2019-Feb-15 04:00S 51°00' W 046°54'4 3.8 290 / 25985.0 7.8 7.8 6.3
2019-Feb-15 03:00S 51°00' W 047°00'7 7.1 290 / 25985.9 7.8 7.7 6.3
2019-Feb-15 02:00S 51°06' W 047°06'4 3.8 280 / 25986.7 8.0 7.5 6.8
2019-Feb-15 01:00S 51°06' W 047°12'4 3.8 290 / 25987.8 7.8 7.3 7.3
2019-Feb-15 00:00S 51°06' W 047°18'7 7.1 300 / 21989.1 7.3 6.8 6.6
2019-Feb-14 23:00S 51°12' W 047°24'4 3.8 300 / 23989.9 7.2 6.7 5.8
2019-Feb-14 22:00S 51°12' W 047°30'7 7.1 290 / 23990.7 7.4 6.6 5.7
2019-Feb-14 21:00S 51°18' W 047°36'4 3.8 280 / 21991.6 7.7 6.9 6.3
2019-Feb-14 20:00S 51°18' W 047°42'7 7.1 280 / 23992.1 7.8 6.7 6.3
2019-Feb-14 19:00S 51°24' W 047°48'4 3.7 290 / 23992.4 8.0 6.7 6.8
2019-Feb-14 18:00S 51°24' W 047°54'4 3.7 280 / 27992.6 8.3 6.6 7.0
2019-Feb-14 17:00S 51°24' W 048°00'7 7.1 280 / 27993.2 8.4 6.5 7.0
2019-Feb-14 16:00S 51°30' W 048°06'7 7.5 290 / 31993.2 8.3 6.2 6.6
2019-Feb-14 15:00S 51°30' W 048°18'7 7.1 290 / 33993.4 8.6 6.2 6.6
2019-Feb-14 14:00S 51°36' W 048°24'4 3.7 300 / 35993.4 8.6 6.4 6.7
2019-Feb-14 13:00S 51°36' W 048°30'7 7.1 300 / 35994.1 8.3 6.4 6.7
2019-Feb-14 12:00S 51°42' W 048°36'4 3.7 300 / 37995.1 8.3 6.5 6.6
2019-Feb-14 11:00S 51°42' W 048°42'7 7.1 300 / 35995.7 8.1 6.8 6.8
2019-Feb-14 10:00S 51°48' W 048°48'4 3.7 300 / 35996.2 8.0 6.8 6.8
2019-Feb-14 09:00S 51°48' W 048°54'4 3.7 300 / 33997.8 8.0 6.6 7.4
2019-Feb-14 08:00S 51°48' W 049°00'7 7.1 300 / 33998.6 7.9 6.2 7.6
2019-Feb-14 07:00S 51°54' W 049°06'4 3.7 300 / 31999.7 7.7 6.1 7.4
2019-Feb-14 06:00S 51°54' W 049°12'7 7.0 300 / 291000.2 7.5 5.5 7.4
2019-Feb-14 05:00S 52°00' W 049°18'4 3.7 290 / 231001.4 7.1 5.0 6.6
2019-Feb-14 04:00S 52°00' W 049°24'4 3.7 280 / 231002.0 6.9 5.1 6.6
2019-Feb-14 03:00S 52°00' W 049°30'7 7.0 270 / 231002.5 6.8 4.7 6.8
2019-Feb-14 02:00S 52°06' W 049°36'4 3.7 260 / 231002.9 6.8 4.7 6.6
2019-Feb-14 01:00S 52°06' W 049°42'7 7.0 260 / 231002.5 6.8 4.7 6.8
2019-Feb-14 00:00S 52°12' W 049°48'4 3.7 250 / 211002.9 8.0 4.9 6.7
2019-Feb-13 23:00S 52°12' W 049°54'0 0.0 250 / 251002.8 7.4 3.9 6.6
2019-Feb-13 22:00S 52°12' W 049°54'7 7.0 250 / 291002.5 8.8 5.2 6.5
2019-Feb-13 21:00S 52°18' W 050°00'4 3.7 250 / 271002.2 7.6 3.0 6.5
2019-Feb-13 20:00S 52°18' W 050°06'4 3.7 240 / 311001.5 7.8 3.6 6.8
2019-Feb-13 19:00S 52°18' W 050°12'7 7.0 230 / 311000.7 6.3 2.9 6.7
2019-Feb-13 18:00S 52°24' W 050°18'4 3.7 230 / 371000.0 6.0 0.8 6.8
2019-Feb-13 17:00S 52°24' W 050°24'7 7.0 220 / 35999.6 5.9 1.6 6.9
2019-Feb-13 16:00S 52°30' W 050°30'4 3.7 220 / 37999.1 5.5 1.5 6.8
2019-Feb-13 15:00S 52°30' W 050°36'4 3.7 220 / 35998.3 5.6 1.0 6.7
2019-Feb-13 14:00S 52°30' W 050°42'7 7.0 220 / 39997.4 5.1 0.4 6.7
2019-Feb-13 13:00S 52°36' W 050°48'0 0.0 230 / 37996.4 5.3 2.5 6.8
2019-Feb-13 12:00S 52°36' W 050°48'4 3.6 230 / 39996.0 5.6 2.2 6.8
2019-Feb-13 11:00S 52°36' W 050°54'9 9.4 220 / 39995.1 5.3 1.8 7.0
2019-Feb-13 10:00S 52°42' W 051°06'7 7.3 220 / 39994.3 5.0 2.1 5.8
2019-Feb-13 09:00S 52°42' W 051°18'6 6.0 220 / 41993.1 4.9 1.9 4.7
2019-Feb-13 08:00S 52°36' W 051°18'4 3.6 220 / 47991.2 5.7 1.7 5.7
2019-Feb-13 07:00S 52°36' W 051°12'4 3.6 250 / 39989.7 6.9 4.7 6.2
2019-Feb-13 06:00S 52°36' W 051°06'7 7.3 250 / 33989.2 7.7 5.7 7.1
2019-Feb-13 05:00S 52°36' W 050°54'7 7.0 270 / 33989.4 8.2 6.2 7.1
2019-Feb-13 04:00S 52°30' W 050°48'4 3.7 270 / 31989.7 8.0 6.7 7.0
2019-Feb-13 03:00S 52°30' W 050°42'0 0.0 270 / 33990.7 7.8 6.8 6.8
2019-Feb-13 02:00S 52°30' W 050°42'0 0.0 280 / 37991.4 7.6 6.9 6.9
2019-Feb-13 01:00S 52°30' W 050°42'1514.6 280 / 31992.8 7.5 6.2 7.1
2019-Feb-13 00:00S 52°30' W 051°06'   300 / 33994.6 7.9 6.8 6.8
Track history (hours):
 
Tides and Currents Weather Stations Pressure Air Temp Water Temp Dewpoint Dewpoint Depression Visibility Wind Speed Wind Dir Waves Ship Positions

Oceanographic research ship Maria S. Merian (Germany)

Last reported at 2019-Feb-23 00:00 UTC. Time now 2019-Feb-23 00:45 UTC.
Position S 51°36' W 048°30'.

Length 94.8 m; beam 19.2 m; draft 6.5 m.

Type: Other ship. MMSI: 211753000.

Wind from 250 at 27 knots

Barometer 1001.6 mb
Air temperature 5.3 ° C
Dewpoint 0.6 ° C
Water temperature 5.7 ° C

Date/timePositionNaut miles runAvg speedWind from/ knotsBaromVisibWave heightAir tempDewpointWater temp
2019-Feb-23 00:00S 51°36' W 048°30'7 7.1 250 / 271001.6 5.3 0.6 5.7
2019-Feb-22 23:00S 51°42' W 048°36'6 6.0 250 / 311001.3 5.3 2.2 5.5
2019-Feb-22 22:00S 51°48' W 048°36'7 7.1 240 / 271000.9 5.1 1.9 5.5
2019-Feb-22 21:00S 51°54' W 048°42'0 0.0 250 / 291000.6 5.4 1.5 6.2
2019-Feb-22 20:00S 51°54' W 048°42'6 6.0 250 / 291000.3 5.2 1.9 5.8
2019-Feb-22 19:00S 52°00' W 048°42'7 7.0 240 / 271000.7 3.0 1.8 6.8
2019-Feb-22 18:00S 52°06' W 048°48'6 6.0 240 / 211000.9 4.0 2.0 5.6
2019-Feb-22 17:00S 52°12' W 048°48'4 3.7 230 / 271000.7 2.8 1.1 5.7
2019-Feb-22 16:00S 52°12' W 048°54'6 6.0 250 / 33999.8 4.8-0.7 6.2
2019-Feb-22 15:00S 52°18' W 048°54'6 6.0 230 / 231000.1 4.1-0.5 6.3
2019-Feb-22 14:00S 52°24' W 048°54'7 7.0 240 / 29999.6 4.4-1.1 5.7
2019-Feb-22 13:00S 52°30' W 049°00'6 6.0 240 / 25999.5 3.1 1.1 5.2
2019-Feb-22 12:00S 52°36' W 049°00'4 3.6 250 / 23999.7 4.4 0.1 4.8
2019-Feb-22 11:00S 52°36' W 049°06'6 6.0 240 / 17999.2 3.4 0.9 4.8
2019-Feb-22 10:00S 52°42' W 049°06'7 7.0 240 / 23998.8 4.2-1.3 5.0
2019-Feb-22 09:00S 52°48' W 049°12'6 6.0 240 / 25999.5 3.4-0.4 4.7
2019-Feb-22 08:00S 52°54' W 049°12'6 6.0 220 / 19998.7 3.3 0.4 4.6
2019-Feb-22 07:00S 52°48' W 049°12'0 0.0 240 / 25998.7 3.7-0.3 4.7
2019-Feb-22 06:00S 52°48' W 049°12'7 7.0 230 / 23998.9 3.4 0.2 4.9
2019-Feb-22 05:00S 52°42' W 049°18'6 6.0 230 / 25998.7 3.7-0.3 4.8
2019-Feb-22 04:00S 52°36' W 049°18'7 7.0 250 / 27998.6 2.9 1.0 5.4
2019-Feb-22 03:00S 52°30' W 049°24'0 0.0 220 / 25998.1 3.7 0.8 6.2
2019-Feb-22 02:00S 52°30' W 049°24'7 7.0 220 / 27997.5 4.1 0.6 5.8
2019-Feb-22 01:00S 52°24' W 049°30'6 6.0 230 / 27996.5 4.7 0.5 5.9
2019-Feb-22 00:00S 52°18' W 049°30'4 3.7 230 / 29995.7 5.0 1.3 6.3
2019-Feb-21 23:00S 52°18' W 049°36'6 6.0 220 / 31994.8 5.1 1.1 6.0
2019-Feb-21 22:00S 52°12' W 049°36'7 7.0 220 / 27993.8 5.3 2.2 6.0
2019-Feb-21 21:00S 52°06' W 049°42'0 0.0 220 / 27992.8 5.8 2.7 6.8
2019-Feb-21 20:00S 52°06' W 049°42'7 7.0 220 / 27992.2 5.7 2.3 6.8
2019-Feb-21 19:00S 52°00' W 049°48'6 6.0 220 / 25991.2 5.7 3.2 7.2
2019-Feb-21 18:00S 51°54' W 049°48'7 7.1 230 / 23990.0 6.1 4.3 7.2
2019-Feb-21 17:00S 51°48' W 049°54'0 0.0 250 / 25988.3 7.0 5.5 7.1
2019-Feb-21 16:00S 51°48' W 049°54'7 7.1 240 / 27986.6 6.9 5.6 6.7
2019-Feb-21 15:00S 51°42' W 050°00'6 6.0 250 / 25985.6 7.0 5.7 6.6
2019-Feb-21 14:00S 51°36' W 050°00'7 7.1 240 / 23984.3 7.1 6.0 6.9
2019-Feb-21 13:00S 51°30' W 050°06'0 0.0 230 / 19982.5 7.1 6.1 7.2
2019-Feb-21 12:00S 51°30' W 050°06'7 7.1 250 / 21980.8 7.2 5.5 7.3
2019-Feb-21 11:00S 51°24' W 050°12'6 6.0 260 / 17980.3 7.5 6.0 7.9
2019-Feb-21 10:00S 51°18' W 050°12'7 3.5 290 / 14979.7 8.0 6.3 8.1
2019-Feb-21 08:00S 51°12' W 050°18'7 7.1 300 / 25980.8 8.3 6.3 7.6
2019-Feb-21 07:00S 51°06' W 050°24'6 6.0 310 / 23981.7 8.3 6.5 7.8
2019-Feb-21 06:00S 51°00' W 050°24'4 3.8 310 / 21982.8 8.3 6.4 7.4
2019-Feb-21 05:00S 51°00' W 050°30'7 7.1 300 / 25983.9 8.1 6.1 7.5
2019-Feb-21 04:00S 50°54' W 050°36'4 3.8 310 / 27984.4 8.2 5.8 7.5
2019-Feb-21 03:00S 50°54' W 050°30'8 7.6 310 / 27984.7 8.1 5.4 7.5
2019-Feb-21 02:00S 50°54' W 050°18'4 3.8 290 / 19985.1 7.5 5.0 7.4
2019-Feb-21 01:00S 50°54' W 050°12'4 3.8 300 / 23984.4 8.6 6.6 7.2
2019-Feb-21 00:00S 50°54' W 050°06'8 7.6 310 / 23984.9 8.5 6.7 7.1
2019-Feb-20 23:00S 50°54' W 049°54'4 3.8 320 / 19985.1 8.0 6.9 7.2
2019-Feb-20 22:00S 50°54' W 049°48'4 3.8 320 / 19985.3 8.1 7.2 7.5
2019-Feb-20 21:00S 50°54' W 049°42'8 7.6 330 / 19985.5 8.5 7.4 7.5
2019-Feb-20 20:00S 50°54' W 049°30'4 3.8 320 / 17985.8 8.6 7.6 7.4
2019-Feb-20 19:00S 50°54' W 049°24'4 3.8 320 / 17986.8 8.5 7.5 6.4
2019-Feb-20 18:00S 50°54' W 049°18'8 7.6 310 / 16987.6 8.6 7.4 6.5
2019-Feb-20 17:00S 50°54' W 049°06'4 3.8 300 / 17988.0 8.8 7.8 6.8
2019-Feb-20 16:00S 50°54' W 049°00'4 3.8 310 / 21987.8 9.0 8.2 6.6
2019-Feb-20 15:00S 50°54' W 048°54'4 3.8 330 / 29988.5 9.1 8.3 6.3
2019-Feb-20 14:00S 50°54' W 048°48'8 7.6 360 / 33988.5 7.8 7.1 5.5
2019-Feb-20 13:00S 50°54' W 048°36'4 3.8 010 / 33989.6 8.5 7.1 5.6
2019-Feb-20 12:00S 50°54' W 048°30'4 3.8 020 / 27993.1 7.9 6.5 5.6
2019-Feb-20 11:00S 50°54' W 048°24'8 7.6 020 / 25994.8 7.8 5.8 5.5
2019-Feb-20 10:00S 50°54' W 048°12'4 3.8 010 / 21996.8 7.6 5.6 6.3
2019-Feb-20 09:00S 50°54' W 048°06'4 3.8 360 / 17998.2 7.4 5.4 6.4
2019-Feb-20 08:00S 50°54' W 048°00'8 7.6 360 / 16999.5 6.9 5.2 6.4
2019-Feb-20 07:00S 50°54' W 047°48'4 3.8 350 / 141001.8 6.7 5.1 6.3
2019-Feb-20 06:00S 50°54' W 047°42'4 3.8 330 / 141002.5 6.7 5.0 6.3
2019-Feb-20 05:00S 50°54' W 047°36'8 7.6 330 / 161003.2 6.5 5.4 5.9
2019-Feb-20 04:00S 50°54' W 047°24'4 3.8 330 / 141003.9 6.4 5.6 6.2
2019-Feb-20 03:00S 50°54' W 047°18'4 3.8 310 / 121003.9 6.4 5.4 6.3
2019-Feb-20 02:00S 50°54' W 047°12'4 3.8 300 / 121004.4 6.2 5.2 6.5
2019-Feb-20 01:00S 50°54' W 047°06'8 7.6 280 / 141004.1 6.3 5.2 6.5
2019-Feb-20 00:00S 50°54' W 046°54'4 3.8 270 / 161004.3 6.4 5.1 6.7
2019-Feb-19 23:00S 50°54' W 046°48'7 7.1 270 / 161003.7 6.6 5.1 6.9
2019-Feb-19 22:00S 50°48' W 046°42'7 7.1 270 / 171004.0 6.7 4.6 7.2
2019-Feb-19 21:00S 50°54' W 046°48'6 6.0 250 / 161003.1 7.4 5.0 7.0
2019-Feb-19 20:00S 51°00' W 046°48'4 3.8 260 / 171002.8 7.4 4.5 6.4
2019-Feb-19 19:00S 51°00' W 046°54'6 6.0 250 / 191002.6 7.2 3.7 6.4
2019-Feb-19 18:00S 51°06' W 046°54'6 6.0 250 / 251002.2 6.9 2.7 6.3
2019-Feb-19 17:00S 51°12' W 046°54'6 6.0 250 / 251002.0 6.3 1.6 6.4
2019-Feb-19 16:00S 51°18' W 046°54'4 3.8 250 / 291001.2 6.0 0.6 6.2
2019-Feb-19 15:00S 51°18' W 047°00'6 6.0 250 / 251000.5 5.2 2.0 5.3
2019-Feb-19 14:00S 51°24' W 047°00'6 6.0 250 / 27999.8 5.4 1.7 5.1
2019-Feb-19 13:00S 51°30' W 047°00'7 7.1 240 / 25998.6 5.5 0.5 5.2
2019-Feb-19 12:00S 51°36' W 047°06'6 6.0 230 / 29997.6 5.0-0.0 5.3
2019-Feb-19 11:00S 51°42' W 047°06'6 6.0 220 / 27996.8 4.3 1.0 5.1
2019-Feb-19 10:00S 51°48' W 047°06'4 3.7 240 / 31995.4 4.6 1.7 4.9
2019-Feb-19 09:00S 51°48' W 047°12'6 6.0 230 / 31993.9 4.7 1.6 5.4
2019-Feb-19 08:00S 51°54' W 047°12'6 6.0 240 / 35992.2 4.5 1.7 5.2
2019-Feb-19 07:00S 52°00' W 047°12'7 7.0 240 / 33991.0 5.7 2.0 5.0
2019-Feb-19 06:00S 52°06' W 047°18'6 6.0 240 / 37990.2 5.3 1.4 5.1
2019-Feb-19 05:00S 52°12' W 047°18'6 6.0 230 / 31989.3 5.4 1.4 4.8
2019-Feb-19 04:00S 52°18' W 047°18'4 3.7 230 / 31988.6 5.5 2.4 4.9
2019-Feb-19 03:00S 52°18' W 047°24'6 6.0 230 / 31987.9 5.2 2.5 4.4
2019-Feb-19 02:00S 52°24' W 047°24'6 6.0 220 / 29986.9 4.9 2.5 4.4
2019-Feb-19 01:00S 52°30' W 047°24'7 7.0 230 / 23986.5 5.2 3.9 5.0
2019-Feb-19 00:00S 52°36' W 047°30'6 6.0 230 / 23986.1 4.9 3.8 5.1
2019-Feb-18 23:00S 52°42' W 047°30'0 0.0 220 / 19985.8 4.8 3.7 4.9
2019-Feb-18 22:00S 52°42' W 047°30'7 7.0 200 / 19985.3 5.3 4.4 4.9
2019-Feb-18 21:00S 52°48' W 047°36'6 6.0 190 / 21984.4 4.7 4.0 5.0
2019-Feb-18 20:00S 52°54' W 047°36'0 0.0 190 / 19984.1 5.2 4.7 5.6
2019-Feb-18 19:00S 52°54' W 047°36'13 6.3 190 / 14984.1 5.2 5.0 5.8
2019-Feb-18 17:00S 52°42' W 047°42'6 6.0 160 / 8984.9 5.2 4.9 5.0
2019-Feb-18 16:00S 52°36' W 047°42'4 3.6 040 / 6985.4 5.6 4.8 4.8
2019-Feb-18 15:00S 52°36' W 047°48'6 6.0 030 / 12986.6 6.6 5.8 5.4
2019-Feb-18 14:00S 52°30' W 047°48'7 7.0 040 / 14987.9 6.3 5.3 4.4
2019-Feb-18 13:00S 52°24' W 047°54'0 0.0 030 / 17989.4 6.1 5.5 5.0
2019-Feb-18 12:00S 52°24' W 047°54'7 7.0 020 / 16991.8 6.1 5.4 5.2
2019-Feb-18 11:00S 52°18' W 048°00'6 6.0 020 / 16993.0 6.2 5.3 5.1
2019-Feb-18 10:00S 52°12' W 048°00'7 7.0 020 / 14994.4 6.7 5.5 6.3
2019-Feb-18 09:00S 52°06' W 048°06'0 0.0 010 / 16995.0 6.3 5.3 6.3
2019-Feb-18 08:00S 52°06' W 048°06'7 7.0 010 / 10995.9 6.5 5.5 6.1
2019-Feb-18 07:00S 52°00' W 048°12'6 6.0 350 / 14997.6 7.1 5.9 6.2
2019-Feb-18 06:00S 51°54' W 048°12'7 7.1 340 / 8998.5 6.9 5.8 6.0
2019-Feb-18 05:00S 51°48' W 048°18'0 0.0 320 / 81000.1 6.5 5.9 5.3
2019-Feb-18 04:00S 51°48' W 048°18'7 7.1 340 / 121000.0 6.7 5.8 5.5
2019-Feb-18 03:00S 51°42' W 048°24'6 6.0 320 / 12999.8 6.8 5.9 5.7
2019-Feb-18 02:00S 51°36' W 048°24'4 3.7 320 / 101000.4 6.9 6.1 6.3
2019-Feb-18 01:00S 51°36' W 048°30'6 6.0 320 / 101000.2 6.9 6.2 6.4
2019-Feb-18 00:00S 51°30' W 048°30'7 7.1 300 / 101000.8 7.0 6.1 6.6
2019-Feb-17 23:00S 51°24' W 048°36'6 6.0 290 / 81000.3 7.0 6.2 6.6
2019-Feb-17 22:00S 51°18' W 048°36'4 3.8 290 / 101000.5 7.0 6.0 6.7
2019-Feb-17 21:00S 51°18' W 048°42'7 7.1 290 / 121000.9 7.0 6.1 6.7
2019-Feb-17 20:00S 51°12' W 048°48'6 6.0 290 / 121001.0 7.0 5.9 6.7
2019-Feb-17 19:00S 51°06' W 048°48'7 7.1 280 / 141000.9 7.1 5.8 6.7
2019-Feb-17 18:00S 51°00' W 048°54'6 6.0 280 / 141001.0 7.2 5.8 6.6
2019-Feb-17 17:00S 50°54' W 048°54'7 7.1 270 / 141000.5 7.3 5.7 6.5
2019-Feb-17 16:00S 50°48' W 049°00'0 0.0 270 / 171000.7 7.4 5.6 6.6
2019-Feb-17 15:00S 50°48' W 049°00'7 7.1 260 / 191001.0 7.7 5.5 6.5
2019-Feb-17 14:00S 50°42' W 049°06'6 6.0 270 / 191000.3 7.5 5.6 6.3
2019-Feb-17 13:00S 50°36' W 049°06'4 3.8 270 / 191000.4 7.6 5.4 6.2
2019-Feb-17 12:00S 50°36' W 049°12'6 6.0 250 / 231000.7 8.0 5.0 6.4
2019-Feb-17 11:00S 50°30' W 049°12'7 7.1 260 / 271001.3 8.4 5.0 7.1
2019-Feb-17 10:00S 50°24' W 049°18'0 0.0 250 / 291000.8 8.5 5.0 7.1
2019-Feb-17 09:00S 50°24' W 049°18'6 6.0 260 / 29999.6 8.5 5.0 7.4
2019-Feb-17 08:00S 50°18' W 049°18'7 7.1 250 / 31999.7 8.6 5.0 7.2
2019-Feb-17 07:00S 50°12' W 049°24'0 0.0 250 / 33999.5 8.7 4.7 7.5
2019-Feb-17 06:00S 50°12' W 049°24'7 7.1 250 / 31998.4 8.8 4.7 7.4
2019-Feb-17 05:00S 50°06' W 049°30'6 6.0 260 / 31998.0 9.0 4.7 7.2
2019-Feb-17 04:00S 50°00' W 049°30'7 7.1 260 / 29997.9 8.9 4.8 6.5
2019-Feb-17 03:00S 49°54' W 049°36'0 0.0 260 / 29997.3 9.0 5.4 6.9
2019-Feb-17 02:00S 49°54' W 049°36'7 7.1 260 / 27996.7 9.1 6.3 7.7
2019-Feb-17 01:00S 49°48' W 049°42'7 7.1 260 / 25996.7 9.3 6.8 8.1
2019-Feb-17 00:00S 49°42' W 049°48'4 3.9 250 / 23996.5 9.9 6.7 8.2
2019-Feb-16 23:00S 49°42' W 049°42'7 7.1 250 / 25995.0 9.8 6.7 7.9
2019-Feb-16 22:00S 49°48' W 049°36'4 3.9 250 / 27994.2 10.2 7.2 8.1
2019-Feb-16 21:00S 49°48' W 049°30'4 3.9 250 / 29992.7 10.6 7.4 8.3
2019-Feb-16 20:00S 49°48' W 049°24'10 9.8 260 / 29992.0 10.4 8.1 7.8
2019-Feb-16 19:00S 49°54' W 049°12'4 3.9 270 / 31990.9 10.3 8.3 7.5
2019-Feb-16 18:00S 49°54' W 049°06'4 3.9 270 / 33991.0 10.2 8.5 7.5
2019-Feb-16 17:00S 49°54' W 049°00'4 3.9 280 / 33990.4 10.7 8.6 7.5
2019-Feb-16 16:00S 49°54' W 048°54'7 7.1 280 / 35991.0 10.8 8.6 7.3
2019-Feb-16 15:00S 50°00' W 048°48'4 3.9 280 / 33991.7 11.2 8.6 6.9
2019-Feb-16 14:00S 50°00' W 048°42'4 3.9 300 / 31992.4 10.9 8.4 7.4
2019-Feb-16 13:00S 50°00' W 048°36'4 3.9 330 / 29994.3 10.5 8.3 7.4
2019-Feb-16 12:00S 50°00' W 048°30'6 6.0 320 / 23997.0 8.7 7.9 7.5
2019-Feb-16 11:00S 50°06' W 048°30'8 7.7 320 / 25998.5 8.5 7.0 7.7
2019-Feb-16 10:00S 50°06' W 048°18'4 3.8 310 / 171000.3 8.7 7.6 7.7
2019-Feb-16 09:00S 50°06' W 048°12'4 3.8 300 / 191000.8 8.2 7.2 7.5
2019-Feb-16 08:00S 50°06' W 048°06'7 7.1 280 / 211001.9 8.1 6.9 7.7
2019-Feb-16 07:00S 50°12' W 048°00'4 3.8 270 / 231003.0 8.0 5.9 7.3
2019-Feb-16 06:00S 50°12' W 047°54'4 3.8 270 / 251002.7 7.9 5.7 7.7
2019-Feb-16 05:00S 50°12' W 047°48'7 7.1 260 / 271002.5 7.6 5.4 7.3
2019-Feb-16 04:00S 50°18' W 047°42'8 7.7 240 / 271002.0 7.2 4.9 6.5
2019-Feb-16 03:00S 50°18' W 047°30'4 3.8 240 / 251001.8 6.9 4.8 6.5
2019-Feb-16 02:00S 50°18' W 047°24'4 3.8 240 / 251001.3 6.8 4.6 6.3
2019-Feb-16 01:00S 50°18' W 047°18'7 7.1 240 / 311000.1 7.0 4.3 6.3
2019-Feb-16 00:00S 50°24' W 047°12'0 0.0 230 / 33999.3 6.4 4.0 6.2
2019-Feb-15 23:00S 50°24' W 047°12'4 3.8 240 / 33998.5 6.9 3.6 6.3
2019-Feb-15 22:00S 50°24' W 047°06'4 3.8 230 / 37997.2 7.1 3.5 6.7
2019-Feb-15 21:00S 50°24' W 047°00'7 7.1 230 / 37996.0 7.1 3.7 6.4
2019-Feb-15 20:00S 50°30' W 046°54'4 3.8 240 / 37994.4 7.4 3.8 6.8
2019-Feb-15 19:00S 50°30' W 046°48'4 3.8 230 / 33994.1 6.5 3.8 6.6
2019-Feb-15 18:00S 50°30' W 046°42'4 3.8 250 / 35993.2 7.4 4.2 6.6
2019-Feb-15 17:00S 50°30' W 046°36'10 9.7 230 / 35992.6 7.0 3.6 6.2
2019-Feb-15 16:00S 50°36' W 046°24'4 3.8 240 / 37991.7 6.6 3.4 6.3
2019-Feb-15 15:00S 50°36' W 046°18'4 3.8 240 / 31990.6 7.2 4.2 6.4
2019-Feb-15 14:00S 50°36' W 046°12'4 3.8 230 / 33989.4 7.2 4.4 6.3
2019-Feb-15 13:00S 50°36' W 046°06'6 6.0 240 / 33988.6 7.5 4.5 6.8
2019-Feb-15 12:00S 50°42' W 046°06'4 3.8 230 / 29987.9 6.6 5.2 6.5
2019-Feb-15 11:00S 50°42' W 046°12'4 3.8 220 / 39987.0 6.1 4.9 6.1
2019-Feb-15 10:00S 50°42' W 046°18'10 9.7 250 / 31985.5 7.6 7.0 6.2
2019-Feb-15 09:00S 50°48' W 046°30'4 3.8 250 / 27984.7 7.3 6.3 6.2
2019-Feb-15 08:00S 50°48' W 046°36'4 3.8 260 / 27983.7 7.2 6.1 6.4
2019-Feb-15 07:00S 50°48' W 046°42'7 7.1 260 / 31983.8 7.5 6.4 6.2
2019-Feb-15 06:00S 50°54' W 046°48'4 3.8 270 / 31983.7 8.1 7.1 6.3
2019-Feb-15 05:00S 50°54' W 046°54'6 6.0 270 / 27984.1 8.0 7.2 6.4
2019-Feb-15 04:00S 51°00' W 046°54'4 3.8 290 / 25985.0 7.8 7.8 6.3
2019-Feb-15 03:00S 51°00' W 047°00'7 7.1 290 / 25985.9 7.8 7.7 6.3
2019-Feb-15 02:00S 51°06' W 047°06'4 3.8 280 / 25986.7 8.0 7.5 6.8
2019-Feb-15 01:00S 51°06' W 047°12'4 3.8 290 / 25987.8 7.8 7.3 7.3
2019-Feb-15 00:00S 51°06' W 047°18'7 7.1 300 / 21989.1 7.3 6.8 6.6
2019-Feb-14 23:00S 51°12' W 047°24'4 3.8 300 / 23989.9 7.2 6.7 5.8
2019-Feb-14 22:00S 51°12' W 047°30'7 7.1 290 / 23990.7 7.4 6.6 5.7
2019-Feb-14 21:00S 51°18' W 047°36'4 3.8 280 / 21991.6 7.7 6.9 6.3
2019-Feb-14 20:00S 51°18' W 047°42'7 7.1 280 / 23992.1 7.8 6.7 6.3
2019-Feb-14 19:00S 51°24' W 047°48'4 3.7 290 / 23992.4 8.0 6.7 6.8
2019-Feb-14 18:00S 51°24' W 047°54'4 3.7 280 / 27992.6 8.3 6.6 7.0
2019-Feb-14 17:00S 51°24' W 048°00'7 7.1 280 / 27993.2 8.4 6.5 7.0
2019-Feb-14 16:00S 51°30' W 048°06'7 7.5 290 / 31993.2 8.3 6.2 6.6
2019-Feb-14 15:00S 51°30' W 048°18'7 7.1 290 / 33993.4 8.6 6.2 6.6
2019-Feb-14 14:00S 51°36' W 048°24'4 3.7 300 / 35993.4 8.6 6.4 6.7
2019-Feb-14 13:00S 51°36' W 048°30'7 7.1 300 / 35994.1 8.3 6.4 6.7
2019-Feb-14 12:00S 51°42' W 048°36'4 3.7 300 / 37995.1 8.3 6.5 6.6
2019-Feb-14 11:00S 51°42' W 048°42'7 7.1 300 / 35995.7 8.1 6.8 6.8
2019-Feb-14 10:00S 51°48' W 048°48'4 3.7 300 / 35996.2 8.0 6.8 6.8
2019-Feb-14 09:00S 51°48' W 048°54'4 3.7 300 / 33997.8 8.0 6.6 7.4
2019-Feb-14 08:00S 51°48' W 049°00'7 7.1 300 / 33998.6 7.9 6.2 7.6
2019-Feb-14 07:00S 51°54' W 049°06'4 3.7 300 / 31999.7 7.7 6.1 7.4
2019-Feb-14 06:00S 51°54' W 049°12'7 7.0 300 / 291000.2 7.5 5.5 7.4
2019-Feb-14 05:00S 52°00' W 049°18'4 3.7 290 / 231001.4 7.1 5.0 6.6
2019-Feb-14 04:00S 52°00' W 049°24'4 3.7 280 / 231002.0 6.9 5.1 6.6
2019-Feb-14 03:00S 52°00' W 049°30'7 7.0 270 / 231002.5 6.8 4.7 6.8
2019-Feb-14 02:00S 52°06' W 049°36'4 3.7 260 / 231002.9 6.8 4.7 6.6
2019-Feb-14 01:00S 52°06' W 049°42'7 7.0 260 / 231002.5 6.8 4.7 6.8
2019-Feb-14 00:00S 52°12' W 049°48'4 3.7 250 / 211002.9 8.0 4.9 6.7
2019-Feb-13 23:00S 52°12' W 049°54'0 0.0 250 / 251002.8 7.4 3.9 6.6
2019-Feb-13 22:00S 52°12' W 049°54'7 7.0 250 / 291002.5 8.8 5.2 6.5
2019-Feb-13 21:00S 52°18' W 050°00'4 3.7 250 / 271002.2 7.6 3.0 6.5
2019-Feb-13 20:00S 52°18' W 050°06'4 3.7 240 / 311001.5 7.8 3.6 6.8
2019-Feb-13 19:00S 52°18' W 050°12'7 7.0 230 / 311000.7 6.3 2.9 6.7
2019-Feb-13 18:00S 52°24' W 050°18'4 3.7 230 / 371000.0 6.0 0.8 6.8
2019-Feb-13 17:00S 52°24' W 050°24'7 7.0 220 / 35999.6 5.9 1.6 6.9
2019-Feb-13 16:00S 52°30' W 050°30'4 3.7 220 / 37999.1 5.5 1.5 6.8
2019-Feb-13 15:00S 52°30' W 050°36'4 3.7 220 / 35998.3 5.6 1.0 6.7
2019-Feb-13 14:00S 52°30' W 050°42'7 7.0 220 / 39997.4 5.1 0.4 6.7
2019-Feb-13 13:00S 52°36' W 050°48'0 0.0 230 / 37996.4 5.3 2.5 6.8
2019-Feb-13 12:00S 52°36' W 050°48'4 3.6 230 / 39996.0 5.6 2.2 6.8
2019-Feb-13 11:00S 52°36' W 050°54'9 9.4 220 / 39995.1 5.3 1.8 7.0
2019-Feb-13 10:00S 52°42' W 051°06'7 7.3 220 / 39994.3 5.0 2.1 5.8
2019-Feb-13 09:00S 52°42' W 051°18'6 6.0 220 / 41993.1 4.9 1.9 4.7
2019-Feb-13 08:00S 52°36' W 051°18'4 3.6 220 / 47991.2 5.7 1.7 5.7
2019-Feb-13 07:00S 52°36' W 051°12'4 3.6 250 / 39989.7 6.9 4.7 6.2
2019-Feb-13 06:00S 52°36' W 051°06'7 7.3 250 / 33989.2 7.7 5.7 7.1
2019-Feb-13 05:00S 52°36' W 050°54'7 7.0 270 / 33989.4 8.2 6.2 7.1
2019-Feb-13 04:00S 52°30' W 050°48'4 3.7 270 / 31989.7 8.0 6.7 7.0
2019-Feb-13 03:00S 52°30' W 050°42'0 0.0 270 / 33990.7 7.8 6.8 6.8
2019-Feb-13 02:00S 52°30' W 050°42'0 0.0 280 / 37991.4 7.6 6.9 6.9
2019-Feb-13 01:00S 52°30' W 050°42'1514.6 280 / 31992.8 7.5 6.2 7.1
2019-Feb-13 00:00S 52°30' W 051°06'   300 / 33994.6 7.9 6.8 6.8

Dump ship's entire track history